sensor_id;sensor_type;location;lat;lon;timestamp;pressure;altitude;pressure_sealevel;temperature;humidity
16738;BME280;17906;47.684;10.806;2023-02-03T00:01:42;94367.56;;;0.10;92.32
16738;BME280;17906;47.684;10.806;2023-02-03T00:04:09;94359.00;;;0.06;93.54
16738;BME280;17906;47.684;10.806;2023-02-03T00:06:35;94355.06;;;0.10;90.90
16738;BME280;17906;47.684;10.806;2023-02-03T00:09:02;94371.72;;;0.12;91.17
16738;BME280;17906;47.684;10.806;2023-02-03T00:11:29;94385.13;;;0.20;91.52
16738;BME280;17906;47.684;10.806;2023-02-03T00:13:56;94385.56;;;0.16;91.51
16738;BME280;17906;47.684;10.806;2023-02-03T00:16:23;94372.06;;;0.17;90.58
16738;BME280;17906;47.684;10.806;2023-02-03T00:18:51;94369.13;;;0.20;90.05
16738;BME280;17906;47.684;10.806;2023-02-03T00:21:17;94365.19;;;0.33;88.10
16738;BME280;17906;47.684;10.806;2023-02-03T00:23:44;94374.97;;;0.24;91.11
16738;BME280;17906;47.684;10.806;2023-02-03T00:26:13;94365.13;;;0.24;88.62
16738;BME280;17906;47.684;10.806;2023-02-03T00:28:40;94357.81;;;0.26;89.89
16738;BME280;17906;47.684;10.806;2023-02-03T00:31:14;94352.63;;;0.25;88.30
16738;BME280;17906;47.684;10.806;2023-02-03T00:33:41;94362.97;;;0.28;88.50
16738;BME280;17906;47.684;10.806;2023-02-03T00:36:10;94357.13;;;0.24;89.90
16738;BME280;17906;47.684;10.806;2023-02-03T00:38:36;94361.34;;;0.35;87.49
16738;BME280;17906;47.684;10.806;2023-02-03T00:41:03;94360.72;;;0.41;87.05
16738;BME280;17906;47.684;10.806;2023-02-03T00:43:30;94358.19;;;0.40;85.55
16738;BME280;17906;47.684;10.806;2023-02-03T00:45:56;94360.47;;;0.52;84.85
16738;BME280;17906;47.684;10.806;2023-02-03T00:48:23;94356.41;;;0.48;85.29
16738;BME280;17906;47.684;10.806;2023-02-03T00:50:49;94357.41;;;0.47;85.82
16738;BME280;17906;47.684;10.806;2023-02-03T00:53:17;94360.09;;;0.47;85.68
16738;BME280;17906;47.684;10.806;2023-02-03T00:55:44;94359.56;;;0.44;86.54
16738;BME280;17906;47.684;10.806;2023-02-03T00:58:10;94349.78;;;0.52;84.79
16738;BME280;17906;47.684;10.806;2023-02-03T01:00:37;94356.91;;;0.52;84.55
16738;BME280;17906;47.684;10.806;2023-02-03T01:03:03;94367.47;;;0.53;85.47
16738;BME280;17906;47.684;10.806;2023-02-03T01:05:30;94357.09;;;0.50;85.37
16738;BME280;17906;47.684;10.806;2023-02-03T01:07:57;94360.28;;;0.54;83.48
16738;BME280;17906;47.684;10.806;2023-02-03T01:10:24;94350.41;;;0.46;84.71
16738;BME280;17906;47.684;10.806;2023-02-03T01:12:51;94352.78;;;0.57;82.69
16738;BME280;17906;47.684;10.806;2023-02-03T01:15:18;94350.63;;;0.53;83.06
16738;BME280;17906;47.684;10.806;2023-02-03T01:17:44;94354.91;;;0.46;84.87
16738;BME280;17906;47.684;10.806;2023-02-03T01:20:11;94347.53;;;0.40;83.99
16738;BME280;17906;47.684;10.806;2023-02-03T01:22:38;94351.88;;;0.41;84.29
16738;BME280;17906;47.684;10.806;2023-02-03T01:25:05;94363.88;;;0.37;85.00
16738;BME280;17906;47.684;10.806;2023-02-03T01:27:34;94362.31;;;0.26;84.31
16738;BME280;17906;47.684;10.806;2023-02-03T01:30:01;94360.41;;;0.18;86.51
16738;BME280;17906;47.684;10.806;2023-02-03T01:32:27;94372.28;;;0.24;85.80
16738;BME280;17906;47.684;10.806;2023-02-03T01:34:54;94375.19;;;0.30;84.85
16738;BME280;17906;47.684;10.806;2023-02-03T01:37:20;94376.31;;;0.28;83.92
16738;BME280;17906;47.684;10.806;2023-02-03T01:39:47;94379.38;;;0.41;84.28
16738;BME280;17906;47.684;10.806;2023-02-03T01:42:14;94373.38;;;0.39;85.07
16738;BME280;17906;47.684;10.806;2023-02-03T01:44:44;94381.06;;;0.42;85.09
16738;BME280;17906;47.684;10.806;2023-02-03T01:47:18;94378.69;;;0.39;83.76
16738;BME280;17906;47.684;10.806;2023-02-03T01:49:48;94380.34;;;0.32;84.95
16738;BME280;17906;47.684;10.806;2023-02-03T01:52:18;94391.19;;;0.30;85.55
16738;BME280;17906;47.684;10.806;2023-02-03T01:54:46;94396.19;;;0.34;85.67
16738;BME280;17906;47.684;10.806;2023-02-03T01:57:17;94392.84;;;0.31;85.66
16738;BME280;17906;47.684;10.806;2023-02-03T01:59:47;94400.16;;;0.29;85.61
16738;BME280;17906;47.684;10.806;2023-02-03T02:02:15;94400.16;;;0.29;85.35
16738;BME280;17906;47.684;10.806;2023-02-03T02:04:50;94405.63;;;0.28;85.89
16738;BME280;17906;47.684;10.806;2023-02-03T02:07:18;94398.97;;;0.24;85.85
16738;BME280;17906;47.684;10.806;2023-02-03T02:09:45;94411.47;;;0.23;86.70
16738;BME280;17906;47.684;10.806;2023-02-03T02:12:12;94396.66;;;0.29;86.34
16738;BME280;17906;47.684;10.806;2023-02-03T02:14:39;94406.63;;;0.27;86.76
16738;BME280;17906;47.684;10.806;2023-02-03T02:17:15;94387.13;;;0.26;85.05
16738;BME280;17906;47.684;10.806;2023-02-03T02:23:02;94371.19;;;0.35;84.37
16738;BME280;17906;47.684;10.806;2023-02-03T02:25:55;94376.88;;;0.40;83.59
16738;BME280;17906;47.684;10.806;2023-02-03T02:31:40;94358.56;;;0.45;82.00
16738;BME280;17906;47.684;10.806;2023-02-03T02:34:13;94362.75;;;0.47;81.36
16738;BME280;17906;47.684;10.806;2023-02-03T02:36:50;94377.56;;;0.42;82.03
16738;BME280;17906;47.684;10.806;2023-02-03T02:39:26;94384.72;;;0.41;81.75
16738;BME280;17906;47.684;10.806;2023-02-03T02:42:00;94360.56;;;0.43;81.76
16738;BME280;17906;47.684;10.806;2023-02-03T02:44:32;94347.38;;;0.41;80.72
16738;BME280;17906;47.684;10.806;2023-02-03T02:47:05;94336.41;;;0.44;82.72
16738;BME280;17906;47.684;10.806;2023-02-03T02:49:40;94341.38;;;0.39;81.15
16738;BME280;17906;47.684;10.806;2023-02-03T02:52:09;94342.84;;;0.34;82.88
16738;BME280;17906;47.684;10.806;2023-02-03T02:54:40;94355.19;;;0.35;81.28
16738;BME280;17906;47.684;10.806;2023-02-03T02:57:09;94355.03;;;0.36;82.55
16738;BME280;17906;47.684;10.806;2023-02-03T02:59:37;94359.88;;;0.41;81.91
16738;BME280;17906;47.684;10.806;2023-02-03T03:02:05;94343.19;;;0.39;82.02
16738;BME280;17906;47.684;10.806;2023-02-03T03:04:32;94361.03;;;0.38;83.26
16738;BME280;17906;47.684;10.806;2023-02-03T03:07:03;94352.31;;;0.28;83.73
16738;BME280;17906;47.684;10.806;2023-02-03T03:09:34;94351.03;;;0.32;84.42
16738;BME280;17906;47.684;10.806;2023-02-03T03:12:07;94348.81;;;0.27;83.59
16738;BME280;17906;47.684;10.806;2023-02-03T03:14:36;94350.97;;;0.24;84.32
16738;BME280;17906;47.684;10.806;2023-02-03T03:17:09;94344.00;;;0.31;83.40
16738;BME280;17906;47.684;10.806;2023-02-03T03:19:38;94314.53;;;0.33;83.15
16738;BME280;17906;47.684;10.806;2023-02-03T03:22:09;94294.69;;;0.35;82.81
16738;BME280;17906;47.684;10.806;2023-02-03T03:24:38;94277.19;;;0.41;82.53
16738;BME280;17906;47.684;10.806;2023-02-03T03:27:09;94272.06;;;0.47;82.17
16738;BME280;17906;47.684;10.806;2023-02-03T03:29:39;94302.22;;;0.48;82.36
16738;BME280;17906;47.684;10.806;2023-02-03T03:32:09;94303.53;;;0.36;82.75
16738;BME280;17906;47.684;10.806;2023-02-03T03:34:36;94319.31;;;0.29;84.54
16738;BME280;17906;47.684;10.806;2023-02-03T03:37:07;94332.81;;;0.27;84.38
16738;BME280;17906;47.684;10.806;2023-02-03T03:39:43;94328.47;;;0.26;84.94
16738;BME280;17906;47.684;10.806;2023-02-03T03:42:18;94333.28;;;0.23;84.62
16738;BME280;17906;47.684;10.806;2023-02-03T03:44:51;94312.16;;;0.29;84.33
16738;BME280;17906;47.684;10.806;2023-02-03T03:47:24;94318.31;;;0.22;85.84
16738;BME280;17906;47.684;10.806;2023-02-03T03:49:53;94310.97;;;0.24;84.52
16738;BME280;17906;47.684;10.806;2023-02-03T03:52:24;94320.31;;;0.28;84.73
16738;BME280;17906;47.684;10.806;2023-02-03T03:54:54;94313.84;;;0.30;84.63
16738;BME280;17906;47.684;10.806;2023-02-03T03:57:24;94310.31;;;0.30;84.15
16738;BME280;17906;47.684;10.806;2023-02-03T03:59:52;94303.53;;;0.36;83.11
16738;BME280;17906;47.684;10.806;2023-02-03T04:02:21;94310.19;;;0.31;83.32
16738;BME280;17906;47.684;10.806;2023-02-03T04:04:49;94316.53;;;0.39;82.84
16738;BME280;17906;47.684;10.806;2023-02-03T04:07:16;94327.53;;;0.36;84.28
16738;BME280;17906;47.684;10.806;2023-02-03T04:09:44;94316.03;;;0.35;84.03
16738;BME280;17906;47.684;10.806;2023-02-03T04:12:17;94270.34;;;0.38;83.15
16738;BME280;17906;47.684;10.806;2023-02-03T04:14:47;94277.69;;;0.36;83.78
16738;BME280;17906;47.684;10.806;2023-02-03T04:17:14;94292.34;;;0.40;83.15
16738;BME280;17906;47.684;10.806;2023-02-03T04:19:41;94296.03;;;0.39;83.75
16738;BME280;17906;47.684;10.806;2023-02-03T04:22:08;94299.72;;;0.46;83.03
16738;BME280;17906;47.684;10.806;2023-02-03T04:24:35;94299.84;;;0.37;85.01
16738;BME280;17906;47.684;10.806;2023-02-03T04:27:01;94304.00;;;0.31;83.72
16738;BME280;17906;47.684;10.806;2023-02-03T04:29:28;94302.31;;;0.30;85.59
16738;BME280;17906;47.684;10.806;2023-02-03T04:31:55;94302.31;;;0.30;85.17
16738;BME280;17906;47.684;10.806;2023-02-03T04:34:21;94281.97;;;0.21;85.61
16738;BME280;17906;47.684;10.806;2023-02-03T04:36:49;94269.81;;;0.26;85.86
16738;BME280;17906;47.684;10.806;2023-02-03T04:39:15;94285.81;;;0.26;86.03
16738;BME280;17906;47.684;10.806;2023-02-03T04:41:42;94301.41;;;0.13;86.31
16738;BME280;17906;47.684;10.806;2023-02-03T04:44:09;94298.25;;;0.18;85.39
16738;BME280;17906;47.684;10.806;2023-02-03T04:46:35;94312.44;;;0.18;85.21
16738;BME280;17906;47.684;10.806;2023-02-03T04:49:02;94331.09;;;0.18;85.77
16738;BME280;17906;47.684;10.806;2023-02-03T04:51:28;94332.47;;;0.22;85.01
16738;BME280;17906;47.684;10.806;2023-02-03T04:53:56;94344.78;;;0.23;85.61
16738;BME280;17906;47.684;10.806;2023-02-03T04:56:23;94346.13;;;0.27;84.97
16738;BME280;17906;47.684;10.806;2023-02-03T04:58:49;94363.63;;;0.22;86.35
16738;BME280;17906;47.684;10.806;2023-02-03T05:01:16;94354.78;;;0.21;86.11
16738;BME280;17906;47.684;10.806;2023-02-03T05:03:42;94348.41;;;0.14;86.53
16738;BME280;17906;47.684;10.806;2023-02-03T05:06:09;94351.41;;;0.11;87.74
16738;BME280;17906;47.684;10.806;2023-02-03T05:08:36;94353.91;;;0.13;87.76
16738;BME280;17906;47.684;10.806;2023-02-03T05:11:04;94358.72;;;0.09;87.71
16738;BME280;17906;47.684;10.806;2023-02-03T05:13:30;94360.00;;;0.05;88.03
16738;BME280;17906;47.684;10.806;2023-02-03T05:15:57;94376.69;;;0.07;88.79
16738;BME280;17906;47.684;10.806;2023-02-03T05:18:23;94373.34;;;0.05;88.66
16738;BME280;17906;47.684;10.806;2023-02-03T05:20:50;94386.22;;;0.10;87.69
16738;BME280;17906;47.684;10.806;2023-02-03T05:23:16;94384.84;;;0.06;88.48
16738;BME280;17906;47.684;10.806;2023-02-03T05:25:43;94384.09;;;-0.05;89.30
16738;BME280;17906;47.684;10.806;2023-02-03T05:28:11;94389.44;;;-0.05;88.90
16738;BME280;17906;47.684;10.806;2023-02-03T05:30:38;94392.94;;;-0.04;89.07
16738;BME280;17906;47.684;10.806;2023-02-03T05:33:04;94376.59;;;-0.09;89.28
16738;BME280;17906;47.684;10.806;2023-02-03T05:35:31;94378.94;;;-0.06;89.43
16738;BME280;17906;47.684;10.806;2023-02-03T05:37:57;94374.75;;;-0.09;88.89
16738;BME280;17906;47.684;10.806;2023-02-03T05:40:24;94388.84;;;-0.16;89.14
16738;BME280;17906;47.684;10.806;2023-02-03T05:43:10;94392.06;;;-0.13;89.30
16738;BME280;17906;47.684;10.806;2023-02-03T05:45:37;94391.66;;;-0.18;90.20
16738;BME280;17906;47.684;10.806;2023-02-03T05:48:04;94391.00;;;-0.20;89.91
16738;BME280;17906;47.684;10.806;2023-02-03T05:50:32;94389.69;;;-0.16;89.88
16738;BME280;17906;47.684;10.806;2023-02-03T05:52:59;94367.00;;;-0.20;89.28
16738;BME280;17906;47.684;10.806;2023-02-03T05:55:25;94362.97;;;-0.24;88.89
16738;BME280;17906;47.684;10.806;2023-02-03T05:57:52;94351.53;;;-0.16;88.98
16738;BME280;17906;47.684;10.806;2023-02-03T06:00:21;94353.59;;;-0.10;86.74
16738;BME280;17906;47.684;10.806;2023-02-03T06:02:50;94359.59;;;-0.08;87.34
16738;BME280;17906;47.684;10.806;2023-02-03T06:05:17;94365.16;;;-0.02;87.97
16738;BME280;17906;47.684;10.806;2023-02-03T06:07:43;94358.91;;;-0.10;88.07
16738;BME280;17906;47.684;10.806;2023-02-03T06:10:10;94360.59;;;-0.09;87.61
16738;BME280;17906;47.684;10.806;2023-02-03T06:12:37;94354.44;;;-0.10;88.07
16738;BME280;17906;47.684;10.806;2023-02-03T06:15:04;94355.94;;;-0.07;86.32
16738;BME280;17906;47.684;10.806;2023-02-03T06:17:32;94364.44;;;-0.04;87.60
16738;BME280;17906;47.684;10.806;2023-02-03T06:20:00;94345.78;;;-0.04;87.37
16738;BME280;17906;47.684;10.806;2023-02-03T06:22:27;94334.47;;;-0.06;86.89
16738;BME280;17906;47.684;10.806;2023-02-03T06:24:53;94339.59;;;-0.12;87.17
16738;BME280;17906;47.684;10.806;2023-02-03T06:27:20;94333.94;;;-0.09;87.16
16738;BME280;17906;47.684;10.806;2023-02-03T06:29:47;94352.38;;;-0.16;87.89
16738;BME280;17906;47.684;10.806;2023-02-03T06:32:13;94362.88;;;-0.14;88.18
16738;BME280;17906;47.684;10.806;2023-02-03T06:34:41;94350.38;;;-0.14;88.52
16738;BME280;17906;47.684;10.806;2023-02-03T06:37:08;94360.38;;;-0.16;87.66
16738;BME280;17906;47.684;10.806;2023-02-03T06:39:34;94369.66;;;-0.20;88.11
16738;BME280;17906;47.684;10.806;2023-02-03T06:42:01;94369.75;;;-0.12;88.01
16738;BME280;17906;47.684;10.806;2023-02-03T06:44:28;94361.03;;;-0.14;88.78
16738;BME280;17906;47.684;10.806;2023-02-03T06:46:54;94360.06;;;-0.13;88.22
16738;BME280;17906;47.684;10.806;2023-02-03T06:49:23;94368.16;;;-0.22;89.59
16738;BME280;17906;47.684;10.806;2023-02-03T06:51:51;94380.50;;;-0.21;88.86
16738;BME280;17906;47.684;10.806;2023-02-03T06:54:18;94369.44;;;-0.27;88.56
16738;BME280;17906;47.684;10.806;2023-02-03T06:56:44;94379.09;;;-0.26;88.96
16738;BME280;17906;47.684;10.806;2023-02-03T06:59:11;94387.09;;;-0.26;89.28
16738;BME280;17906;47.684;10.806;2023-02-03T07:01:38;94393.25;;;-0.25;89.33
16738;BME280;17906;47.684;10.806;2023-02-03T07:04:05;94388.25;;;-0.28;88.70
16738;BME280;17906;47.684;10.806;2023-02-03T07:06:31;94405.91;;;-0.27;90.58
16738;BME280;17906;47.684;10.806;2023-02-03T07:09:00;94391.44;;;-0.24;89.11
16738;BME280;17906;47.684;10.806;2023-02-03T07:11:28;94389.25;;;-0.29;90.38
16738;BME280;17906;47.684;10.806;2023-02-03T07:13:55;94398.22;;;-0.30;90.46
16738;BME280;17906;47.684;10.806;2023-02-03T07:16:22;94401.13;;;-0.23;89.73
16738;BME280;17906;47.684;10.806;2023-02-03T07:18:48;94396.16;;;-0.18;89.38
16738;BME280;17906;47.684;10.806;2023-02-03T07:21:16;94386.19;;;-0.16;89.18
16738;BME280;17906;47.684;10.806;2023-02-03T07:23:45;94396.84;;;-0.16;89.19
16738;BME280;17906;47.684;10.806;2023-02-03T07:26:14;94397.66;;;-0.16;88.99
16738;BME280;17906;47.684;10.806;2023-02-03T07:28:40;94406.34;;;-0.14;89.50
16738;BME280;17906;47.684;10.806;2023-02-03T07:31:07;94420.13;;;-0.18;88.69
16738;BME280;17906;47.684;10.806;2023-02-03T07:33:35;94406.50;;;-0.15;88.95
16738;BME280;17906;47.684;10.806;2023-02-03T07:36:02;94415.88;;;-0.11;88.14
16738;BME280;17906;47.684;10.806;2023-02-03T07:38:29;94417.56;;;-0.10;87.92
16738;BME280;17906;47.684;10.806;2023-02-03T07:40:56;94407.72;;;-0.10;88.09
16738;BME280;17906;47.684;10.806;2023-02-03T07:43:24;94418.75;;;-0.05;87.86
16738;BME280;17906;47.684;10.806;2023-02-03T07:45:51;94408.09;;;-0.05;86.73
16738;BME280;17906;47.684;10.806;2023-02-03T07:48:17;94406.81;;;-0.01;86.73
16738;BME280;17906;47.684;10.806;2023-02-03T07:50:44;94400.75;;;-0.03;87.22
16738;BME280;17906;47.684;10.806;2023-02-03T07:53:10;94406.81;;;-0.01;87.30
16738;BME280;17906;47.684;10.806;2023-02-03T07:55:37;94403.44;;;-0.03;87.82
16738;BME280;17906;47.684;10.806;2023-02-03T07:58:04;94403.50;;;0.06;86.28
16738;BME280;17906;47.684;10.806;2023-02-03T08:00:32;94407.00;;;0.06;84.88
16738;BME280;17906;47.684;10.806;2023-02-03T08:02:59;94401.50;;;0.08;86.94
16738;BME280;17906;47.684;10.806;2023-02-03T08:05:26;94392.72;;;0.41;85.23
16738;BME280;17906;47.684;10.806;2023-02-03T08:07:54;94381.25;;;0.49;84.48
16738;BME280;17906;47.684;10.806;2023-02-03T08:10:21;94369.84;;;0.65;83.01
16738;BME280;17906;47.684;10.806;2023-02-03T08:12:47;94362.72;;;0.81;82.93
16738;BME280;17906;47.684;10.806;2023-02-03T08:15:14;94355.44;;;1.00;82.21
16738;BME280;17906;47.684;10.806;2023-02-03T08:17:42;94348.34;;;1.33;79.35
16738;BME280;17906;47.684;10.806;2023-02-03T08:20:10;94336.16;;;1.55;77.56
16738;BME280;17906;47.684;10.806;2023-02-03T08:22:37;94320.94;;;1.71;78.48
16738;BME280;17906;47.684;10.806;2023-02-03T08:25:04;94315.94;;;1.76;76.21
16738;BME280;17906;47.684;10.806;2023-02-03T08:27:31;94308.09;;;1.83;76.05
16738;BME280;17906;47.684;10.806;2023-02-03T08:29:58;94318.28;;;1.80;75.46
16738;BME280;17906;47.684;10.806;2023-02-03T08:32:25;94315.13;;;1.60;76.56
16738;BME280;17906;47.684;10.806;2023-02-03T08:34:54;94320.28;;;1.45;77.53
16738;BME280;17906;47.684;10.806;2023-02-03T08:37:22;94316.59;;;1.38;76.76
16738;BME280;17906;47.684;10.806;2023-02-03T08:39:49;94320.78;;;1.24;79.00
16738;BME280;17906;47.684;10.806;2023-02-03T08:42:17;94326.63;;;1.19;77.86
16738;BME280;17906;47.684;10.806;2023-02-03T08:44:43;94312.44;;;1.27;78.06
16738;BME280;17906;47.684;10.806;2023-02-03T08:47:10;94319.44;;;1.36;78.09
16738;BME280;17906;47.684;10.806;2023-02-03T08:49:37;94313.63;;;1.57;76.75
16738;BME280;17906;47.684;10.806;2023-02-03T08:52:07;94315.63;;;1.55;76.20
16738;BME280;17906;47.684;10.806;2023-02-03T08:54:35;94317.78;;;1.60;75.85
16738;BME280;17906;47.684;10.806;2023-02-03T08:57:02;94314.28;;;1.67;74.19
16738;BME280;17906;47.684;10.806;2023-02-03T08:59:30;94305.75;;;1.88;72.82
16738;BME280;17906;47.684;10.806;2023-02-03T09:02:00;94303.91;;;1.89;72.42
16738;BME280;17906;47.684;10.806;2023-02-03T09:04:27;94311.91;;;2.05;71.33
16738;BME280;17906;47.684;10.806;2023-02-03T09:06:53;94317.88;;;2.23;69.29
16738;BME280;17906;47.684;10.806;2023-02-03T09:09:22;94331.75;;;2.27;68.63
16738;BME280;17906;47.684;10.806;2023-02-03T09:11:51;94347.28;;;2.40;67.90
16738;BME280;17906;47.684;10.806;2023-02-03T09:14:17;94331.50;;;2.61;67.23
16738;BME280;17906;47.684;10.806;2023-02-03T09:16:44;94360.47;;;2.88;66.26
16738;BME280;17906;47.684;10.806;2023-02-03T09:19:10;94373.47;;;3.00;65.47
16738;BME280;17906;47.684;10.806;2023-02-03T09:21:38;94388.31;;;3.18;64.26
16738;BME280;17906;47.684;10.806;2023-02-03T09:24:05;94385.81;;;3.17;65.90
16738;BME280;17906;47.684;10.806;2023-02-03T09:26:34;94376.50;;;3.05;65.33
16738;BME280;17906;47.684;10.806;2023-02-03T09:29:01;94363.22;;;2.80;65.41
16738;BME280;17906;47.684;10.806;2023-02-03T09:31:27;94383.09;;;2.86;65.24
16738;BME280;17906;47.684;10.806;2023-02-03T09:33:54;94371.34;;;2.95;66.30
16738;BME280;17906;47.684;10.806;2023-02-03T09:36:20;94374.75;;;2.81;66.67
16738;BME280;17906;47.684;10.806;2023-02-03T09:38:47;94368.78;;;3.02;65.00
16738;BME280;17906;47.684;10.806;2023-02-03T09:41:20;94357.19;;;3.09;65.79
16738;BME280;17906;47.684;10.806;2023-02-03T09:43:55;94360.50;;;3.19;65.28
16738;BME280;17906;47.684;10.806;2023-02-03T09:46:28;94351.44;;;3.51;65.28
16738;BME280;17906;47.684;10.806;2023-02-03T09:48:59;94358.44;;;3.61;64.77
16738;BME280;17906;47.684;10.806;2023-02-03T09:51:33;94361.94;;;3.61;63.34
16738;BME280;17906;47.684;10.806;2023-02-03T09:54:04;94369.72;;;3.48;64.48
16738;BME280;17906;47.684;10.806;2023-02-03T09:56:34;94362.97;;;3.60;64.53
16738;BME280;17906;47.684;10.806;2023-02-03T09:59:03;94377.91;;;4.38;63.40
16738;BME280;17906;47.684;10.806;2023-02-03T10:01:36;94370.69;;;4.53;61.31
16738;BME280;17906;47.684;10.806;2023-02-03T10:04:08;94373.63;;;4.29;62.61
16738;BME280;17906;47.684;10.806;2023-02-03T10:06:42;94349.66;;;3.67;62.94
16738;BME280;17906;47.684;10.806;2023-02-03T10:09:22;94351.81;;;3.17;64.57
16738;BME280;17906;47.684;10.806;2023-02-03T10:12:19;94353.34;;;3.12;65.88
16738;BME280;17906;47.684;10.806;2023-02-03T10:15:01;94355.13;;;2.88;66.23
16738;BME280;17906;47.684;10.806;2023-02-03T10:17:33;94339.31;;;3.02;66.28
16738;BME280;17906;47.684;10.806;2023-02-03T10:20:05;94339.72;;;3.21;64.66
16738;BME280;17906;47.684;10.806;2023-02-03T10:22:40;94330.00;;;3.74;65.44
16738;BME280;17906;47.684;10.806;2023-02-03T10:25:15;94319.81;;;3.93;62.01
16738;BME280;17906;47.684;10.806;2023-02-03T10:27:45;94347.72;;;3.61;64.30
16738;BME280;17906;47.684;10.806;2023-02-03T10:30:19;94353.16;;;4.13;63.87
16738;BME280;17906;47.684;10.806;2023-02-03T10:32:48;94343.13;;;3.92;62.39
16738;BME280;17906;47.684;10.806;2023-02-03T10:35:14;94341.09;;;3.71;63.80
16738;BME280;17906;47.684;10.806;2023-02-03T10:37:43;94341.03;;;3.57;64.60
16738;BME280;17906;47.684;10.806;2023-02-03T10:40:11;94342.75;;;3.49;64.71
16738;BME280;17906;47.684;10.806;2023-02-03T10:42:38;94342.91;;;3.48;65.84
16738;BME280;17906;47.684;10.806;2023-02-03T10:45:24;94333.72;;;3.42;64.88
16738;BME280;17906;47.684;10.806;2023-02-03T10:47:52;94330.16;;;3.50;65.36
16738;BME280;17906;47.684;10.806;2023-02-03T10:50:21;94323.91;;;3.35;65.21
16738;BME280;17906;47.684;10.806;2023-02-03T10:52:48;94329.97;;;3.51;65.57
16738;BME280;17906;47.684;10.806;2023-02-03T10:55:30;94327.31;;;3.51;66.13
16738;BME280;17906;47.684;10.806;2023-02-03T10:57:57;94334.47;;;3.36;65.75
16738;BME280;17906;47.684;10.806;2023-02-03T11:00:27;94329.50;;;3.48;67.07
16738;BME280;17906;47.684;10.806;2023-02-03T11:02:55;94324.19;;;3.40;66.19
16738;BME280;17906;47.684;10.806;2023-02-03T11:05:23;94316.50;;;3.14;65.91
16738;BME280;17906;47.684;10.806;2023-02-03T11:07:51;94321.53;;;3.09;67.02
16738;BME280;17906;47.684;10.806;2023-02-03T11:10:32;94306.72;;;2.98;67.40
16738;BME280;17906;47.684;10.806;2023-02-03T11:13:17;94295.41;;;2.80;66.08
16738;BME280;17906;47.684;10.806;2023-02-03T11:16:02;94315.03;;;2.72;67.74
16738;BME280;17906;47.684;10.806;2023-02-03T11:18:36;94315.53;;;2.76;67.42
16738;BME280;17906;47.684;10.806;2023-02-03T11:21:14;94311.53;;;2.72;66.57
16738;BME280;17906;47.684;10.806;2023-02-03T11:23:46;94304.81;;;2.76;67.22
16738;BME280;17906;47.684;10.806;2023-02-03T11:26:18;94294.13;;;2.68;67.22
16738;BME280;17906;47.684;10.806;2023-02-03T11:28:47;94308.72;;;2.65;67.65
16738;BME280;17906;47.684;10.806;2023-02-03T11:31:22;94305.84;;;2.67;67.14
16738;BME280;17906;47.684;10.806;2023-02-03T11:33:53;94308.16;;;2.78;68.13
16738;BME280;17906;47.684;10.806;2023-02-03T11:36:20;94304.78;;;2.84;67.25
16738;BME280;17906;47.684;10.806;2023-02-03T11:38:47;94293.09;;;2.77;66.40
16738;BME280;17906;47.684;10.806;2023-02-03T11:41:15;94309.66;;;2.80;67.38
16738;BME280;17906;47.684;10.806;2023-02-03T11:43:42;94299.94;;;2.79;68.62
16738;BME280;17906;47.684;10.806;2023-02-03T11:46:09;94286.16;;;2.90;67.87
16738;BME280;17906;47.684;10.806;2023-02-03T11:48:38;94293.19;;;2.91;67.20
16738;BME280;17906;47.684;10.806;2023-02-03T11:51:16;94291.91;;;2.79;67.33
16738;BME280;17906;47.684;10.806;2023-02-03T11:53:59;94299.69;;;2.58;68.39
16738;BME280;17906;47.684;10.806;2023-02-03T11:56:44;94295.06;;;2.44;68.66
16738;BME280;17906;47.684;10.806;2023-02-03T11:59:29;94311.78;;;2.46;69.01
16738;BME280;17906;47.684;10.806;2023-02-03T12:05:25;94294.31;;;2.27;70.01
16738;BME280;17906;47.684;10.806;2023-02-03T12:08:14;94281.13;;;2.17;70.38
16738;BME280;17906;47.684;10.806;2023-02-03T12:10:51;94275.13;;;2.07;70.67
16738;BME280;17906;47.684;10.806;2023-02-03T12:13:32;94273.47;;;1.98;71.68
16738;BME280;17906;47.684;10.806;2023-02-03T12:16:14;94270.81;;;1.90;71.71
16738;BME280;17906;47.684;10.806;2023-02-03T12:18:51;94266.31;;;1.90;71.62
16738;BME280;17906;47.684;10.806;2023-02-03T12:21:32;94256.63;;;1.89;72.05
16738;BME280;17906;47.684;10.806;2023-02-03T12:24:07;94252.09;;;1.90;71.54
16738;BME280;17906;47.684;10.806;2023-02-03T12:26:43;94232.25;;;1.84;72.09
16738;BME280;17906;47.684;10.806;2023-02-03T12:29:16;94235.41;;;1.88;72.18
16738;BME280;17906;47.684;10.806;2023-02-03T12:31:48;94225.53;;;1.88;72.35
16738;BME280;17906;47.684;10.806;2023-02-03T12:34:20;94209.84;;;1.93;72.12
16738;BME280;17906;47.684;10.806;2023-02-03T12:36:52;94218.53;;;1.87;71.59
16738;BME280;17906;47.684;10.806;2023-02-03T12:39:26;94220.72;;;1.84;72.01
16738;BME280;17906;47.684;10.806;2023-02-03T12:41:59;94202.84;;;1.84;71.68
16738;BME280;17906;47.684;10.806;2023-02-03T12:44:31;94208.84;;;1.86;72.13
16738;BME280;17906;47.684;10.806;2023-02-03T12:47:02;94201.19;;;1.83;72.31
16738;BME280;17906;47.684;10.806;2023-02-03T12:49:36;94195.00;;;1.83;71.91
16738;BME280;17906;47.684;10.806;2023-02-03T12:52:13;94185.97;;;1.84;72.82
16738;BME280;17906;47.684;10.806;2023-02-03T12:54:46;94173.63;;;1.83;72.81
16738;BME280;17906;47.684;10.806;2023-02-03T12:57:20;94173.75;;;1.89;72.96
16738;BME280;17906;47.684;10.806;2023-02-03T12:59:58;94177.59;;;1.87;72.60
16738;BME280;17906;47.684;10.806;2023-02-03T13:02:28;94168.94;;;1.85;71.95
16738;BME280;17906;47.684;10.806;2023-02-03T13:05:01;94158.53;;;1.90;72.12
16738;BME280;17906;47.684;10.806;2023-02-03T13:07:37;94159.16;;;2.00;72.16
16738;BME280;17906;47.684;10.806;2023-02-03T13:10:14;94147.81;;;1.98;71.76
16738;BME280;17906;47.684;10.806;2023-02-03T13:12:46;94141.28;;;2.00;72.60
16738;BME280;17906;47.684;10.806;2023-02-03T13:15:21;94151.47;;;2.05;72.57
16738;BME280;17906;47.684;10.806;2023-02-03T13:17:54;94142.44;;;2.06;72.03
16738;BME280;17906;47.684;10.806;2023-02-03T13:20:23;94151.63;;;2.03;72.42